Time;durP1;ratioP1;P1;durP2;ratioP2;P2;SDS_P1;SDS_P2;PMS_P1;PMS_P2;Temp;Humidity;BMP_temperature;BMP_pressure;BME280_temperature;BME280_humidity;BME280_pressure;Samples;Min_cycle;Max_cycle;Signal;HPM_P1;HPM_P2
2022/07/25 00:00:12;;;;;;;5.68;4.07;;;;;;;23.68;100.00;101049.34;4750952;30;20070;-63
2022/07/25 00:02:41;;;;;;;5.85;3.85;;;;;;;23.63;100.00;101043.84;4733478;30;20069;-62
2022/07/25 00:05:10;;;;;;;5.45;3.75;;;;;;;23.63;100.00;101033.13;4737845;30;20118;-63
2022/07/25 00:07:36;;;;;;;8.98;3.95;;;;;;;23.62;100.00;101023.47;4732038;30;20525;-63
2022/07/25 00:10:03;;;;;;;6.93;3.42;;;;;;;23.64;100.00;101028.59;4732918;30;20060;-62
2022/07/25 00:12:30;;;;;;;8.63;4.60;;;;;;;23.62;100.00;101026.16;4744919;30;20060;-63
2022/07/25 00:14:56;;;;;;;8.10;4.38;;;;;;;23.57;100.00;101027.88;4742748;30;20501;-63
2022/07/25 00:17:22;;;;;;;4.55;3.80;;;;;;;23.56;100.00;101026.22;4753032;30;20063;-63
2022/07/25 00:19:49;;;;;;;5.53;3.72;;;;;;;23.51;100.00;101024.25;4742483;30;20075;-63
2022/07/25 00:22:16;;;;;;;7.03;3.88;;;;;;;23.42;100.00;101023.75;4740535;30;20125;-63
2022/07/25 00:24:42;;;;;;;5.53;4.22;;;;;;;23.36;100.00;101013.13;4728716;30;20056;-63
2022/07/25 00:27:08;;;;;;;5.85;4.07;;;;;;;23.35;100.00;101011.50;4742769;30;20064;-63
2022/07/25 00:29:35;;;;;;;5.45;4.35;;;;;;;23.33;100.00;101008.25;4746236;30;20052;-61
2022/07/25 00:32:03;;;;;;;7.97;4.30;;;;;;;23.33;100.00;101008.25;4740449;30;20066;-61
2022/07/25 00:34:29;;;;;;;5.63;4.65;;;;;;;23.30;100.00;101004.13;4738926;30;20093;-61
2022/07/25 00:36:56;;;;;;;5.93;4.30;;;;;;;23.29;100.00;101005.19;4724743;30;20064;-62
2022/07/25 00:39:22;;;;;;;5.50;4.30;;;;;;;23.26;100.00;101001.09;4725217;30;20068;-62
2022/07/25 00:41:49;;;;;;;5.88;4.60;;;;;;;23.25;100.00;100996.78;4734607;30;20061;-62
2022/07/25 00:44:26;;;;;;;6.32;4.63;;;;;;;23.29;100.00;100991.81;4741339;30;20060;-62
2022/07/25 00:46:53;;;;;;;6.15;4.43;;;;;;;23.24;100.00;100984.44;4728759;30;20073;-62
2022/07/25 00:49:21;;;;;;;5.38;4.47;;;;;;;23.20;100.00;100985.94;4741026;30;20104;-62
2022/07/25 00:51:49;;;;;;;8.75;4.50;;;;;;;23.21;100.00;100990.25;4748758;30;20066;-62
2022/07/25 00:54:16;;;;;;;5.78;4.70;;;;;;;23.18;100.00;100981.88;4739828;30;20060;-62
2022/07/25 00:56:43;;;;;;;9.32;4.85;;;;;;;23.20;100.00;100977.91;4739139;30;20064;-63
2022/07/25 00:59:09;;;;;;;6.70;4.97;;;;;;;23.12;100.00;100964.06;4733350;30;20061;-62
2022/07/25 01:01:37;;;;;;;6.03;5.05;;;;;;;23.06;100.00;100966.56;4732087;30;20677;-62
2022/07/25 01:04:05;;;;;;;6.75;5.22;;;;;;;23.02;100.00;100968.06;4729657;30;20579;-62
2022/07/25 01:06:33;;;;;;;6.68;4.85;;;;;;;22.96;100.00;100963.59;4722670;30;20073;-63
2022/07/25 01:09:00;;;;;;;5.57;4.97;;;;;;;22.95;100.00;100953.91;4729076;30;20064;-63
2022/07/25 01:11:27;;;;;;;6.68;4.72;;;;;;;22.96;100.00;100954.75;4738174;30;20067;-63
2022/07/25 01:13:53;;;;;;;7.68;5.57;;;;;;;22.94;100.00;100952.31;4742891;30;20060;-61
2022/07/25 01:16:20;;;;;;;7.70;5.25;;;;;;;22.90;100.00;100946.59;4728117;30;20644;-63
2022/07/25 01:18:46;;;;;;;7.30;5.50;;;;;;;22.86;100.00;100942.72;4748666;30;20071;-63
2022/07/25 01:21:13;;;;;;;6.35;4.95;;;;;;;22.82;100.00;100948.75;4724211;30;20075;-63
2022/07/25 01:23:40;;;;;;;9.23;5.55;;;;;;;22.78;100.00;100943.03;4753208;30;20070;-63
2022/07/25 01:26:06;;;;;;;6.55;5.30;;;;;;;22.75;100.00;100943.47;4741979;30;20167;-63
2022/07/25 01:28:33;;;;;;;6.22;5.38;;;;;;;22.70;100.00;100940.69;4728315;30;20068;-63
2022/07/25 01:30:59;;;;;;;6.47;5.20;;;;;;;22.65;100.00;100933.31;4745745;30;20074;-64
2022/07/25 01:33:26;;;;;;;6.72;5.03;;;;;;;22.63;100.00;100945.28;4737666;30;20060;-62
2022/07/25 01:35:52;;;;;;;8.13;5.80;;;;;;;22.62;100.00;100932.94;4735790;30;20053;-63
2022/07/25 01:38:19;;;;;;;6.90;5.63;;;;;;;22.58;100.00;100931.75;4737495;30;20070;-64
2022/07/25 01:40:45;;;;;;;7.18;5.90;;;;;;;22.55;100.00;100918.84;4741495;30;20060;-63
2022/07/25 01:43:11;;;;;;;7.32;5.75;;;;;;;22.47;100.00;100928.78;4740205;30;20060;-62
2022/07/25 01:45:38;;;;;;;7.40;5.80;;;;;;;22.44;100.00;100923.06;4725748;29;20067;-63
2022/07/25 01:48:05;;;;;;;8.13;5.57;;;;;;;22.42;100.00;100923.28;4747641;30;20059;-63
2022/07/25 01:50:31;;;;;;;8.20;5.90;;;;;;;22.37;100.00;100920.47;4747642;30;20098;-62
2022/07/25 01:52:57;;;;;;;7.28;5.72;;;;;;;22.35;100.00;100919.06;4748495;30;20403;-62
2022/07/25 01:55:24;;;;;;;8.02;6.57;;;;;;;22.32;100.00;100917.66;4744259;30;20063;-62
2022/07/25 01:57:51;;;;;;;9.23;6.47;;;;;;;22.31;100.00;100918.69;4743662;30;20068;-62
2022/07/25 02:00:19;;;;;;;8.70;6.13;;;;;;;22.30;100.00;100914.38;4730681;30;20060;-62
2022/07/25 02:02:45;;;;;;;6.75;5.90;;;;;;;22.29;100.00;100916.25;4730089;30;20503;-62
2022/07/25 02:05:13;;;;;;;8.98;6.40;;;;;;;22.30;100.00;100909.03;4732547;30;20071;-63
2022/07/25 02:07:39;;;;;;;7.38;6.22;;;;;;;22.27;100.00;100915.66;4723372;30;20064;-63
2022/07/25 02:10:07;;;;;;;9.00;5.78;;;;;;;22.26;100.00;100907.84;4745305;30;20107;-62
2022/07/25 02:12:33;;;;;;;8.33;6.10;;;;;;;22.21;100.00;100905.81;4750244;30;20060;-62
2022/07/25 02:14:59;;;;;;;8.70;6.18;;;;;;;22.20;100.00;100898.84;4733805;30;20075;-63
2022/07/25 02:17:26;;;;;;;11.15;6.38;;;;;;;22.20;100.00;100896.16;4748750;30;20060;-62
2022/07/25 02:19:52;;;;;;;7.50;6.22;;;;;;;22.18;100.00;100892.91;4730523;30;20060;-62
2022/07/25 02:22:19;;;;;;;8.95;6.40;;;;;;;22.18;100.00;100890.22;4743494;30;20075;-62
2022/07/25 02:24:45;;;;;;;9.90;6.78;;;;;;;22.20;100.00;100882.00;4749299;30;20066;-62
2022/07/25 02:27:11;;;;;;;8.27;6.40;;;;;;;22.21;100.00;100883.59;4741242;30;20068;-63
2022/07/25 02:29:40;;;;;;;8.07;6.63;;;;;;;22.21;100.00;100879.09;4738383;30;20118;-62
2022/07/25 02:32:07;;;;;;;9.75;6.93;;;;;;;22.18;100.00;100868.03;4739906;30;20521;-62
2022/07/25 02:34:33;;;;;;;9.45;7.13;;;;;;;22.17;100.00;100864.56;4746800;30;20062;-62
2022/07/25 02:36:59;;;;;;;9.95;7.40;;;;;;;22.15;100.00;100855.13;4724617;30;20068;-62
2022/07/25 02:39:26;;;;;;;10.80;7.40;;;;;;;22.10;100.00;100861.94;4747352;30;20282;-62
2022/07/25 02:41:52;;;;;;;7.65;6.85;;;;;;;22.15;100.00;100857.78;4731785;30;20071;-62
2022/07/25 02:44:19;;;;;;;8.32;6.90;;;;;;;22.16;100.00;100857.56;4738293;30;20068;-62
2022/07/25 02:46:45;;;;;;;12.23;7.45;;;;;;;22.14;100.00;100856.16;4741480;30;20078;-62
2022/07/25 02:49:12;;;;;;;10.27;7.38;;;;;;;22.09;100.00;100867.50;4738375;30;20152;-62
2022/07/25 02:51:38;;;;;;;10.23;7.15;;;;;;;22.05;100.00;100859.13;4743248;30;20715;-62
2022/07/25 02:54:05;;;;;;;8.25;7.03;;;;;;;22.03;100.00;100855.03;4729464;30;20107;-63
2022/07/25 02:56:32;;;;;;;8.98;7.22;;;;;;;22.00;100.00;100855.50;4731038;30;20063;-62
2022/07/25 02:58:58;;;;;;;8.40;7.50;;;;;;;21.98;100.00;100846.88;4725322;30;20115;-62
2022/07/25 03:01:25;;;;;;;9.73;7.32;;;;;;;21.97;100.00;100847.91;4746440;30;20422;-62
2022/07/25 03:03:51;;;;;;;8.95;7.95;;;;;;;21.96;100.00;100839.09;4732697;30;20119;-62
2022/07/25 03:06:18;;;;;;;10.20;7.75;;;;;;;21.91;100.00;100826.41;4736336;30;20064;-62
2022/07/25 03:08:44;;;;;;;11.32;7.97;;;;;;;21.89;100.00;100838.34;4727264;30;20069;-62
2022/07/25 03:11:13;;;;;;;9.77;7.47;;;;;;;21.88;100.00;100829.50;4727809;30;20086;-62
2022/07/25 03:13:39;;;;;;;9.57;7.82;;;;;;;21.86;100.00;100831.59;4737927;30;20075;-62
2022/07/25 03:16:06;;;;;;;9.13;7.82;;;;;;;21.86;100.00;100828.13;4735421;30;20091;-62
2022/07/25 03:18:33;;;;;;;10.45;7.88;;;;;;;21.85;100.00;100827.28;4750956;30;20060;-62
2022/07/25 03:20:59;;;;;;;11.35;7.63;;;;;;;21.85;100.00;100829.13;4740382;30;20056;-62
2022/07/25 03:23:27;;;;;;;11.90;8.30;;;;;;;21.81;100.00;100828.75;4732532;29;20502;-63
2022/07/25 03:25:54;;;;;;;10.23;7.88;;;;;;;21.81;100.00;100820.75;4735795;30;20485;-62
2022/07/25 03:28:21;;;;;;;9.20;7.65;;;;;;;21.81;100.00;100826.09;4730323;30;20104;-62
2022/07/25 03:30:48;;;;;;;9.15;7.68;;;;;;;21.75;100.00;100823.50;4732721;30;20102;-62
2022/07/25 03:33:14;;;;;;;11.95;8.00;;;;;;;21.73;100.00;100823.72;4726493;30;20068;-62
2022/07/25 03:35:41;;;;;;;9.23;8.18;;;;;;;21.68;100.00;100824.38;4745175;30;20122;-62
2022/07/25 03:38:07;;;;;;;9.35;8.35;;;;;;;21.64;100.00;100823.19;4738875;30;20059;-62
2022/07/25 03:40:35;;;;;;;10.82;8.27;;;;;;;21.61;100.00;100814.78;4739144;30;20082;-62
2022/07/25 03:43:01;;;;;;;10.45;8.35;;;;;;;21.57;100.00;100811.75;4731407;30;20167;-62
2022/07/25 03:45:28;;;;;;;9.80;8.20;;;;;;;21.52;100.00;100812.41;4726353;30;20067;-62
2022/07/25 03:47:54;;;;;;;11.93;8.77;;;;;;;21.54;100.00;100814.84;4741653;30;20132;-61
2022/07/25 03:50:21;;;;;;;15.05;9.55;;;;;;;21.50;100.00;100814.47;4724952;30;20056;-61
2022/07/25 03:52:47;;;;;;;10.77;9.07;;;;;;;21.51;100.00;100810.75;4736687;30;20064;-62
2022/07/25 03:55:14;;;;;;;10.98;9.38;;;;;;;21.53;100.00;100815.88;4736600;30;20076;-62
2022/07/25 03:57:40;;;;;;;12.93;9.25;;;;;;;21.51;100.00;100809.97;4739160;30;20891;-63
2022/07/25 04:00:09;;;;;;;14.93;9.30;;;;;;;21.51;100.00;100804.63;4751124;30;20063;-62
2022/07/25 04:02:38;;;;;;;11.77;9.40;;;;;;;21.50;100.00;100805.63;4722862;30;20062;-62
2022/07/25 04:05:06;;;;;;;11.13;8.70;;;;;;;21.52;100.00;100803.56;4730843;30;20155;-62
2022/07/25 04:07:33;;;;;;;12.75;9.50;;;;;;;21.52;100.00;100807.06;4723147;30;20096;-62
2022/07/25 04:10:00;;;;;;;11.13;9.68;;;;;;;21.53;100.00;100807.88;4735154;30;20070;-64
2022/07/25 04:12:27;;;;;;;11.30;8.88;;;;;;;21.53;100.00;100795.34;4740868;30;20151;-62
2022/07/25 04:14:53;;;;;;;11.52;9.65;;;;;;;21.49;100.00;100796.81;4738784;30;20064;-62
2022/07/25 04:17:20;;;;;;;12.05;9.32;;;;;;;21.49;100.00;100799.50;4731933;30;20341;-62
2022/07/25 04:19:46;;;;;;;12.95;9.98;;;;;;;21.49;100.00;100802.16;4721397;30;21327;-61
2022/07/25 04:22:13;;;;;;;15.02;10.02;;;;;;;21.45;100.00;100798.31;4745439;30;20529;-62
2022/07/25 04:24:40;;;;;;;15.80;9.90;;;;;;;21.42;100.00;100796.03;4729650;30;20490;-62
2022/07/25 04:27:06;;;;;;;14.05;10.02;;;;;;;21.42;100.00;100797.88;4729432;30;20059;-62
2022/07/25 04:29:33;;;;;;;11.75;9.13;;;;;;;21.42;100.00;100796.03;4728075;30;20065;-62
2022/07/25 04:31:59;;;;;;;14.05;9.45;;;;;;;21.39;100.00;100788.47;4729731;30;20076;-62
2022/07/25 04:34:26;;;;;;;11.93;9.20;;;;;;;21.42;100.00;100787.22;4736322;30;20525;-62
2022/07/25 04:36:52;;;;;;;11.90;9.88;;;;;;;21.44;100.00;100777.97;4731819;30;20060;-62
2022/07/25 04:39:18;;;;;;;12.93;9.30;;;;;;;21.50;100.00;100779.78;4736420;30;20071;-62
2022/07/25 04:41:45;;;;;;;12.77;9.25;;;;;;;21.58;100.00;100772.53;4735011;30;22516;-62
2022/07/25 04:44:11;;;;;;;11.80;9.85;;;;;;;21.60;100.00;100781.97;4741445;30;20060;-62
2022/07/25 04:46:39;;;;;;;13.63;10.10;;;;;;;21.60;100.00;100773.94;4737848;30;20066;-62
2022/07/25 04:49:06;;;;;;;14.18;9.43;;;;;;;21.60;100.00;100781.97;4727811;30;20056;-62
2022/07/25 04:51:32;;;;;;;15.63;9.40;;;;;;;21.60;100.00;100784.63;4742615;30;20064;-62
2022/07/25 04:53:58;;;;;;;13.15;8.98;;;;;;;21.60;100.00;100779.28;4728605;30;20067;-62
2022/07/25 04:56:25;;;;;;;12.32;8.82;;;;;;;21.65;100.00;100775.94;4728546;30;20099;-62
2022/07/25 04:58:51;;;;;;;10.95;8.63;;;;;;;21.70;100.00;100765.44;4736993;30;20338;-62
2022/07/25 05:01:18;;;;;;;14.73;9.45;;;;;;;21.75;100.00;100773.56;4730742;30;20064;-62
2022/07/25 05:03:45;;;;;;;15.13;10.38;;;;;;;21.82;100.00;100776.19;4737575;30;20072;-62
2022/07/25 05:06:17;;;;;;;11.95;9.63;;;;;;;21.85;100.00;100781.88;4735197;30;20582;-62
2022/07/25 05:08:43;;;;;;;12.15;9.75;;;;;;;21.92;100.00;100776.50;4730685;30;20523;-62
2022/07/25 05:11:09;;;;;;;14.63;10.20;;;;;;;22.00;100.00;100778.03;4743066;30;20059;-62
2022/07/25 05:13:36;;;;;;;12.75;9.77;;;;;;;22.08;100.00;100772.41;4749069;30;20091;-62
2022/07/25 05:16:02;;;;;;;13.85;10.02;;;;;;;22.15;100.00;100778.47;4742202;30;20332;-62
2022/07/25 05:18:29;;;;;;;11.63;9.18;;;;;;;22.22;100.00;100778.41;4738223;30;20060;-62
2022/07/25 05:20:56;;;;;;;14.48;9.40;;;;;;;22.25;100.00;100770.78;4739276;30;20068;-62
2022/07/25 05:23:22;;;;;;;11.15;9.23;;;;;;;22.29;100.00;100763.13;4726021;30;20768;-62
2022/07/25 05:25:48;;;;;;;12.38;9.60;;;;;;;22.37;100.00;100776.19;4737288;30;20116;-64
2022/07/25 05:28:16;;;;;;;14.70;9.80;;;;;;;22.40;100.00;100775.72;4720834;30;20783;-62
2022/07/25 05:30:43;;;;;;;10.38;8.80;;;;;;;22.45;100.00;100770.50;4730138;30;20058;-62
2022/07/25 05:33:09;;;;;;;12.25;8.45;;;;;;;22.53;100.00;100761.38;4741931;30;20089;-62
2022/07/25 05:35:35;;;;;;;11.20;8.50;;;;;;;22.62;100.00;100752.00;4726387;30;20057;-62
2022/07/25 05:38:02;;;;;;;12.23;8.52;;;;;;;22.73;100.00;100762.94;4750146;30;20064;-62
2022/07/25 05:40:29;;;;;;;12.50;8.38;;;;;;;22.77;100.00;100754.22;4735780;30;20056;-62
2022/07/25 05:42:55;;;;;;;12.80;9.00;;;;;;;22.89;100.00;100762.25;4744299;30;20080;-62
2022/07/25 05:45:28;;;;;;;12.45;7.65;;;;;;;22.93;100.00;100757.28;4740006;30;20066;-62
2022/07/25 05:47:54;;;;;;;10.40;8.35;;;;;;;22.96;100.00;100759.50;4736062;30;20068;-62
2022/07/25 05:50:21;;;;;;;13.45;8.80;;;;;;;23.02;100.00;100756.75;4734955;30;20056;-62
2022/07/25 05:52:47;;;;;;;13.73;8.75;;;;;;;23.08;100.00;100755.81;4737735;30;20063;-62
2022/07/25 05:55:14;;;;;;;14.88;8.70;;;;;;;23.14;100.00;100761.31;4731391;30;20067;-63
2022/07/25 05:57:41;;;;;;;11.45;8.98;;;;;;;23.20;100.00;100753.16;4736314;30;20062;-62
2022/07/25 06:00:08;;;;;;;11.88;8.32;;;;;;;23.27;100.00;100753.06;4741980;30;20068;-62
2022/07/25 06:02:34;;;;;;;14.48;8.57;;;;;;;23.32;100.00;100753.16;4734977;30;20062;-62
2022/07/25 06:05:01;;;;;;;11.55;9.15;;;;;;;23.37;100.00;100749.81;4750198;30;20056;-62
2022/07/25 06:07:28;;;;;;;13.50;9.07;;;;;;;23.40;100.00;100752.81;4746440;30;20056;-62
2022/07/25 06:09:54;;;;;;;12.05;8.30;;;;;;;23.48;100.00;100751.63;4728950;30;20060;-62
2022/07/25 06:12:20;;;;;;;11.15;8.38;;;;;;;23.54;100.00;100755.25;4736745;30;20075;-64
2022/07/25 06:14:49;;;;;;;16.23;8.45;;;;;;;23.57;100.00;100768.19;4724789;30;20065;-63
2022/07/25 06:17:16;;;;;;;10.32;8.18;;;;;;;23.63;100.00;100773.41;4735545;30;20060;-62
2022/07/25 06:19:42;;;;;;;13.50;9.07;;;;;;;23.65;100.00;100768.63;4743279;30;20066;-62
2022/07/25 06:22:10;;;;;;;12.82;8.50;;;;;;;23.67;100.00;100777.22;4751312;30;20430;-62
2022/07/25 06:24:36;;;;;;;14.35;8.50;;;;;;;23.64;100.00;100764.34;4729307;30;20422;-62
2022/07/25 06:27:03;;;;;;;12.10;8.25;;;;;;;23.65;100.00;100773.16;4737677;30;20575;-62
2022/07/25 06:29:29;;;;;;;13.38;8.68;;;;;;;23.65;100.00;100768.63;4754371;30;20072;-62
2022/07/25 06:31:56;;;;;;;11.27;8.38;;;;;;;23.67;100.00;100771.06;4738546;30;20059;-62
2022/07/25 06:34:22;;;;;;;14.98;8.77;;;;;;;23.74;100.00;100774.44;4751253;30;20490;-62
2022/07/25 06:36:54;;;;;;;16.85;8.63;;;;;;;23.75;100.00;100784.09;4735737;30;20064;-62
2022/07/25 06:39:20;;;;;;;15.70;9.20;;;;;;;23.76;100.00;100779.56;4735659;30;20072;-63
2022/07/25 06:41:47;;;;;;;12.70;8.68;;;;;;;23.74;100.00;100782.47;4748251;30;20701;-64
2022/07/25 06:44:13;;;;;;;14.18;8.88;;;;;;;23.72;100.00;100776.53;4739079;30;20068;-63
2022/07/25 06:46:40;;;;;;;13.77;9.15;;;;;;;23.77;100.00;100787.34;4735204;30;20070;-62
2022/07/25 06:49:07;;;;;;;11.18;8.70;;;;;;;23.82;100.00;100784.81;4724887;30;20076;-62
2022/07/25 06:51:33;;;;;;;12.88;9.35;;;;;;;23.80;100.00;100778.09;4737919;30;20136;-62
2022/07/25 06:54:00;;;;;;;12.18;9.43;;;;;;;23.75;100.00;100764.53;4739208;30;20519;-62
2022/07/25 06:56:30;;;;;;;12.30;9.38;;;;;;;23.79;100.00;100766.53;4744212;30;20068;-64
2022/07/25 06:58:57;;;;;;;17.27;8.88;;;;;;;23.83;100.00;100765.00;4739446;30;20071;-64
2022/07/25 07:01:24;;;;;;;13.45;9.60;;;;;;;23.67;100.00;100782.59;4723999;30;20060;-63
2022/07/25 07:03:50;;;;;;;12.35;9.18;;;;;;;23.71;100.00;100779.44;4731496;30;20148;-62
2022/07/25 07:06:17;;;;;;;15.80;9.57;;;;;;;23.71;100.00;100780.25;4724852;30;20806;-62
2022/07/25 07:08:43;;;;;;;10.88;8.15;;;;;;;23.74;100.00;100785.16;4744095;30;20070;-63
2022/07/25 07:11:14;;;;;;;11.07;8.57;;;;;;;23.71;100.00;100784.81;4740465;30;20064;-64
2022/07/25 07:13:40;;;;;;;14.60;9.13;;;;;;;23.81;100.00;100791.22;4739942;30;20102;-62
2022/07/25 07:16:07;;;;;;;15.05;10.05;;;;;;;23.85;100.00;100780.84;4735935;30;20056;-62
2022/07/25 07:18:34;;;;;;;13.57;9.48;;;;;;;23.90;100.00;100767.56;4742240;30;20064;-62
2022/07/25 07:21:00;;;;;;;11.63;9.02;;;;;;;23.99;100.00;100760.81;4735957;30;20450;-62
2022/07/25 07:23:27;;;;;;;13.20;9.60;;;;;;;24.02;100.00;100748.78;4732110;30;20102;-62
2022/07/25 07:25:55;;;;;;;14.97;9.17;;;;;;;24.08;100.00;100755.88;4733882;30;20082;-61
2022/07/25 07:28:21;;;;;;;11.18;9.52;;;;;;;24.08;100.00;100759.38;4724796;30;20549;-62
2022/07/25 07:30:48;;;;;;;11.13;8.70;;;;;;;24.14;100.00;100751.44;4735864;30;20048;-64
2022/07/25 07:33:36;;;;;;;10.98;8.43;;;;;;;24.24;100.00;100755.13;4732700;30;20063;-62
2022/07/25 07:36:03;;;;;;;11.43;8.88;;;;;;;24.32;100.00;100761.16;4729235;30;20175;-62
2022/07/25 07:38:29;;;;;;;13.25;8.63;;;;;;;24.34;100.00;100764.41;4745425;30;20051;-63
2022/07/25 07:40:56;;;;;;;11.30;8.50;;;;;;;24.30;100.00;100771.31;4730475;30;20621;-63
2022/07/25 07:43:22;;;;;;;11.88;7.93;;;;;;;24.36;100.00;100764.97;4732710;30;20068;-62
2022/07/25 07:45:55;;;;;;;10.70;8.80;;;;;;;24.45;100.00;100768.91;4726227;30;20070;-62
2022/07/25 07:48:22;;;;;;;10.50;7.30;;;;;;;24.49;100.00;100770.06;4738448;30;20093;-63
2022/07/25 07:50:48;;;;;;;11.13;7.63;;;;;;;24.56;100.00;100764.56;4742044;30;20086;-63
2022/07/25 07:53:15;;;;;;;9.98;6.53;;;;;;;24.64;100.00;100764.19;4744715;30;20074;-68
2022/07/25 07:55:44;;;;;;;9.32;6.85;;;;;;;24.67;100.00;100761.03;4744668;30;20156;-63
2022/07/25 07:58:15;;;;;;;9.40;6.88;;;;;;;24.79;100.00;100769.81;4734111;30;20070;-61
2022/07/25 08:00:44;;;;;;;9.10;5.88;;;;;;;24.77;97.97;100771.91;4738145;30;20067;-61
2022/07/25 08:03:12;;;;;;;8.25;5.32;;;;;;;24.88;97.29;100764.06;4726766;30;20179;-62
2022/07/25 08:05:41;;;;;;;7.07;5.00;;;;;;;24.84;94.27;100774.47;4742071;30;20052;-61
2022/07/25 08:08:11;;;;;;;8.45;5.13;;;;;;;24.90;92.11;100780.72;4742874;30;20292;-61
2022/07/25 08:10:42;;;;;;;6.60;4.70;;;;;;;24.94;93.45;100785.34;4737427;30;20060;-63
2022/07/25 08:13:15;;;;;;;6.50;4.38;;;;;;;24.98;92.18;100793.75;4740064;30;20525;-64
2022/07/25 08:15:43;;;;;;;4.97;3.90;;;;;;;25.06;92.04;100788.78;4715219;30;20058;-63
2022/07/25 08:18:10;;;;;;;7.40;4.10;;;;;;;24.97;87.68;100795.63;4744704;30;20068;-63
2022/07/25 08:20:46;;;;;;;5.53;3.53;;;;;;;24.89;94.33;100798.69;4733386;30;20066;-63
2022/07/25 08:23:13;;;;;;;6.15;3.75;;;;;;;24.92;96.30;100792.84;4745297;30;20055;-63
2022/07/25 08:25:40;;;;;;;7.57;3.70;;;;;;;24.83;93.31;100797.78;4742622;30;20561;-63
2022/07/25 08:28:07;;;;;;;6.20;3.20;;;;;;;24.81;93.27;100793.72;4727277;30;20070;-63
2022/07/25 08:30:36;;;;;;;6.75;3.10;;;;;;;24.80;93.65;100792.91;4736693;30;20081;-64
2022/07/25 08:33:05;;;;;;;4.70;2.65;;;;;;;25.05;94.84;100789.84;4732750;30;20056;-63
2022/07/25 08:35:33;;;;;;;7.25;3.00;;;;;;;25.16;91.77;100790.81;4738980;30;20068;-62
2022/07/25 08:38:00;;;;;;;;;;;;;;;25.39;87.98;100787.16;4732404;30;20181;-63
2022/07/25 08:40:28;;;;;;;3.72;2.35;;;;;;;25.75;88.07;100768.06;4731651;30;19956;-61
2022/07/25 08:42:55;;;;;;;6.72;2.22;;;;;;;25.96;88.27;100769.16;4742111;30;20067;-60
2022/07/25 08:45:22;;;;;;;4.57;2.23;;;;;;;26.11;87.77;100769.34;4736929;30;20060;-63
2022/07/25 08:47:50;;;;;;;4.95;2.10;;;;;;;26.22;85.72;100771.06;4741176;30;20064;-63
2022/07/25 08:50:20;;;;;;;6.60;2.28;;;;;;;26.18;84.10;100769.94;4727377;30;20064;-62
2022/07/25 08:52:47;;;;;;;3.38;1.83;;;;;;;26.17;83.51;100778.28;4728947;30;20079;-63
2022/07/25 08:55:18;;;;;;;2.90;1.95;;;;;;;26.11;85.06;100796.22;4734679;30;20067;-62
2022/07/25 08:57:47;;;;;;;3.20;2.00;;;;;;;26.28;85.21;100787.25;4743194;30;20130;-64
2022/07/25 09:00:22;;;;;;;4.35;1.73;;;;;;;26.43;83.52;100796.31;4732324;30;20193;-62
2022/07/25 09:03:00;;;;;;;7.30;2.10;;;;;;;26.86;86.19;100785.72;4745081;30;20067;-62
2022/07/25 09:05:30;;;;;;;4.90;1.30;;;;;;;26.92;82.17;100792.78;4741060;30;20080;-63
2022/07/25 09:08:04;;;;;;;4.07;1.50;;;;;;;26.81;81.51;100793.75;4722210;30;20060;-62
2022/07/25 09:10:30;;;;;;;8.80;1.70;;;;;;;26.86;83.76;100801.06;4742855;30;20798;-62
2022/07/25 09:12:58;;;;;;;5.05;1.70;;;;;;;26.76;84.52;100799.09;4731131;30;20070;-63
2022/07/25 09:15:30;;;;;;;9.32;1.80;;;;;;;26.59;85.29;100801.88;4744944;30;20269;-62
2022/07/25 09:17:59;;;;;;;7.18;1.42;;;;;;;26.65;87.25;100800.06;4735294;30;20431;-61
2022/07/25 09:20:45;;;;;;;13.57;1.80;;;;;;;26.90;86.60;100799.47;4734344;30;20087;-62
2022/07/25 09:23:14;;;;;;;7.22;1.67;;;;;;;27.12;86.64;100802.88;4726734;30;20063;-62
2022/07/25 09:25:41;;;;;;;3.35;1.40;;;;;;;27.01;85.88;100803.88;4738796;30;20060;-62
2022/07/25 09:28:12;;;;;;;3.78;1.38;;;;;;;27.10;87.26;100817.69;4727075;30;20067;-62
2022/07/25 09:30:40;;;;;;;5.47;1.40;;;;;;;27.23;88.51;100812.66;4735801;29;20426;-62
2022/07/25 09:33:07;;;;;;;4.28;1.50;;;;;;;27.34;88.35;100808.19;4728742;30;20092;-63
2022/07/25 09:35:37;;;;;;;2.72;1.10;;;;;;;27.38;86.58;100811.19;4729743;30;20064;-62
2022/07/25 09:38:09;;;;;;;8.23;1.40;;;;;;;27.19;85.93;100816.94;4744488;30;20068;-62
2022/07/25 09:40:35;;;;;;;2.92;1.40;;;;;;;27.00;87.30;100823.78;4724676;30;20110;-61
2022/07/25 09:43:02;;;;;;;3.60;1.00;;;;;;;27.20;87.52;100821.25;4742635;30;20060;-62
2022/07/25 09:45:28;;;;;;;4.63;1.15;;;;;;;27.12;86.66;100820.94;4745552;30;20779;-62
2022/07/25 09:48:02;;;;;;;3.42;1.02;;;;;;;27.66;86.72;100815.41;4730758;30;20563;-63
2022/07/25 09:50:31;;;;;;;3.17;1.17;;;;;;;27.57;86.12;100822.34;4739484;30;20506;-62
2022/07/25 09:53:01;;;;;;;3.63;1.15;;;;;;;27.70;85.62;100815.72;4741624;30;20064;-62
2022/07/25 09:55:28;;;;;;;3.33;1.30;;;;;;;27.74;85.66;100823.00;4745819;30;20497;-63
2022/07/25 09:57:55;;;;;;;;;;;;;;;27.90;85.40;100832.00;4738432;30;20188;-62
2022/07/25 10:00:25;;;;;;;2.45;1.05;;;;;;;27.73;86.47;100826.75;4731970;30;19937;-63
2022/07/25 10:03:07;;;;;;;5.05;1.20;;;;;;;28.28;84.21;100829.19;4732142;30;20612;-63
2022/07/25 10:06:06;;;;;;;5.25;1.10;;;;;;;28.58;83.63;100836.59;4733324;30;20526;-62
2022/07/25 10:08:38;;;;;;;5.65;1.95;;;;;;;28.36;82.55;100834.91;4743934;30;20075;-62
2022/07/25 10:11:17;;;;;;;3.28;1.20;;;;;;;28.32;82.10;100835.66;4735835;30;20067;-62
2022/07/25 10:13:44;;;;;;;4.72;1.45;;;;;;;28.11;82.90;100837.47;4732326;30;20862;-60
2022/07/25 10:16:19;;;;;;;4.18;1.42;;;;;;;28.13;85.62;100833.47;4739149;30;20139;-62
2022/07/25 10:18:55;;;;;;;4.82;1.23;;;;;;;27.89;84.96;100833.06;4747843;30;20063;-61
2022/07/25 10:21:23;;;;;;;5.45;1.40;;;;;;;27.81;86.73;100841.63;4744034;30;20153;-61
2022/07/25 10:24:04;;;;;;;4.47;1.40;;;;;;;27.84;86.18;100835.72;4746091;30;20064;-61
2022/07/25 10:26:34;;;;;;;5.25;1.77;;;;;;;27.71;84.53;100849.66;4732155;30;20064;-62
2022/07/25 10:29:07;;;;;;;4.90;1.70;;;;;;;27.34;83.71;100850.47;4744452;30;20130;-60
2022/07/25 10:31:44;;;;;;;3.60;1.40;;;;;;;27.21;84.99;100841.72;4743446;30;20059;-61
2022/07/25 10:34:28;;;;;;;5.13;1.48;;;;;;;27.32;85.13;100847.22;4736162;30;20517;-63
2022/07/25 10:36:56;;;;;;;3.42;1.40;;;;;;;27.37;84.35;100844.59;4739208;30;20052;-61
2022/07/25 10:39:22;;;;;;;4.07;1.70;;;;;;;27.40;85.38;100858.34;4738440;30;20102;-61
2022/07/25 10:42:01;;;;;;;5.18;1.50;;;;;;;27.52;83.90;100857.34;4735981;30;20059;-61
2022/07/25 10:44:43;;;;;;;3.85;1.55;;;;;;;27.48;82.75;100848.16;4731763;30;20458;-62
2022/07/25 10:47:12;;;;;;;2.47;1.55;;;;;;;27.53;82.62;100846.31;4745095;30;20074;-61
2022/07/25 10:49:48;;;;;;;7.47;1.67;;;;;;;27.72;85.38;100841.31;4740391;30;20528;-64
2022/07/25 10:52:40;;;;;;;4.07;1.83;;;;;;;27.77;86.37;100841.31;4746308;30;20063;-62
2022/07/25 10:55:07;;;;;;;5.78;1.60;;;;;;;27.67;85.78;100856.63;4731847;30;20064;-62
2022/07/25 10:57:34;;;;;;;6.77;1.97;;;;;;;27.59;81.15;100857.94;4729647;30;20057;-62
2022/07/25 11:00:07;;;;;;;5.60;1.70;;;;;;;27.65;80.01;100870.34;4727594;30;20089;-62
2022/07/25 11:02:34;;;;;;;4.90;1.73;;;;;;;27.49;80.68;100863.25;4742261;30;20056;-63
2022/07/25 11:05:02;;;;;;;4.97;1.80;;;;;;;27.63;81.60;100874.38;4739774;30;20545;-62
2022/07/25 11:07:34;;;;;;;6.38;1.60;;;;;;;27.43;81.76;100873.19;4729265;30;20544;-62
2022/07/25 11:10:04;;;;;;;5.40;1.80;;;;;;;27.42;81.28;100872.38;4731922;30;20412;-61
2022/07/25 11:12:32;;;;;;;3.72;1.55;;;;;;;27.33;81.30;100875.78;4747354;30;20585;-61
2022/07/25 11:15:05;;;;;;;3.05;1.15;;;;;;;27.10;77.30;100874.22;4740812;30;20063;-63
2022/07/25 11:17:33;;;;;;;3.92;1.52;;;;;;;27.05;78.10;100875.00;4735999;30;20692;-62
2022/07/25 11:20:00;;;;;;;;;;;;;;;27.17;79.70;100875.63;4739652;30;20070;-62